createdAt,value
2023-04-04T00:00:40.710Z,3.14
2023-04-04T00:03:07.765Z,3.12
2023-04-04T00:05:36.148Z,3.13
2023-04-04T00:08:04.076Z,3.04
2023-04-04T00:10:30.854Z,3.16
2023-04-04T00:12:57.830Z,2.99
2023-04-04T00:15:24.520Z,2.94
2023-04-04T00:17:52.168Z,2.76
2023-04-04T00:20:18.960Z,2.80
2023-04-04T00:22:45.918Z,2.86
2023-04-04T00:25:12.694Z,3.00
2023-04-04T00:27:39.581Z,2.94
2023-04-04T00:30:07.020Z,3.05
2023-04-04T00:32:33.982Z,3.00
2023-04-04T00:35:00.805Z,2.84
2023-04-04T00:37:28.159Z,2.84
2023-04-04T00:39:54.929Z,2.88
2023-04-04T00:42:22.359Z,2.77
2023-04-04T00:44:49.135Z,2.74
2023-04-04T00:47:16.762Z,2.61
2023-04-04T00:49:45.330Z,2.71
2023-04-04T00:52:12.972Z,2.93
2023-04-04T00:54:39.737Z,2.78
2023-04-04T00:57:07.788Z,2.78
2023-04-04T00:59:34.817Z,2.92
2023-04-04T01:02:02.596Z,3.02
2023-04-04T01:04:29.566Z,3.05
2023-04-04T01:06:56.818Z,3.13
2023-04-04T01:09:23.850Z,3.18
2023-04-04T01:11:50.959Z,3.05
2023-04-04T01:14:17.803Z,3.03
2023-04-04T01:16:45.146Z,3.08
2023-04-04T01:19:16.731Z,3.09
2023-04-04T01:21:44.824Z,2.98
2023-04-04T01:24:13.488Z,2.90
2023-04-04T01:27:06.613Z,2.89
2023-04-04T01:29:38.796Z,2.87
2023-04-04T01:32:13.234Z,2.77
2023-04-04T01:34:50.714Z,2.74
2023-04-04T01:37:37.577Z,2.58
2023-04-04T01:40:18.225Z,2.59
2023-04-04T01:42:49.305Z,2.64
2023-04-04T01:45:17.214Z,2.69
2023-04-04T01:47:45.085Z,2.70
2023-04-04T01:50:16.771Z,2.68
2023-04-04T01:52:43.885Z,2.66
2023-04-04T01:55:10.794Z,2.55
2023-04-04T01:57:37.874Z,2.49
2023-04-04T02:00:05.878Z,2.49
2023-04-04T02:02:43.256Z,2.53
2023-04-04T02:05:11.266Z,2.54
2023-04-04T02:07:38.171Z,2.59
2023-04-04T02:10:11.644Z,2.32
2023-04-04T02:12:40.029Z,2.38
2023-04-04T02:15:07.216Z,2.42
2023-04-04T02:17:34.915Z,2.41
2023-04-04T02:20:02.401Z,2.52
2023-04-04T02:22:29.243Z,2.52
2023-04-04T02:24:57.707Z,2.42
2023-04-04T02:27:24.551Z,2.26
2023-04-04T02:29:51.272Z,2.31
2023-04-04T02:32:18.424Z,2.25
2023-04-04T02:34:45.504Z,2.16
2023-04-04T02:37:13.235Z,2.02
2023-04-04T02:39:40.446Z,1.97
2023-04-04T02:42:07.340Z,1.99
2023-04-04T02:44:33.991Z,1.96
2023-04-04T02:47:01.000Z,1.82
2023-04-04T02:49:30.351Z,1.82
2023-04-04T02:51:58.209Z,1.81
2023-04-04T02:54:29.485Z,1.85
2023-04-04T02:56:56.860Z,1.97
2023-04-04T02:59:23.630Z,2.03
2023-04-04T03:01:50.645Z,1.94
2023-04-04T03:04:19.617Z,1.79
2023-04-04T03:06:48.411Z,1.80
2023-04-04T03:09:16.236Z,1.61
2023-04-04T03:11:43.041Z,1.63
2023-04-04T03:14:10.087Z,1.74
2023-04-04T03:16:39.608Z,1.50
2023-04-04T03:19:07.682Z,1.39
2023-04-04T03:21:34.618Z,1.33
2023-04-04T03:24:01.560Z,1.11
2023-04-04T03:26:29.500Z,1.02
2023-04-04T03:28:56.232Z,0.96
2023-04-04T03:31:24.892Z,0.95
2023-04-04T03:33:52.000Z,0.87
2023-04-04T03:36:18.790Z,0.80
2023-04-04T03:38:49.147Z,0.75
2023-04-04T03:41:15.958Z,0.75
2023-04-04T03:43:42.855Z,0.68
2023-04-04T03:46:09.591Z,0.72
2023-04-04T03:48:37.517Z,0.54
2023-04-04T03:51:07.905Z,0.52
2023-04-04T03:53:36.652Z,0.55
2023-04-04T03:56:03.564Z,0.41
2023-04-04T03:58:31.006Z,0.48
2023-04-04T04:00:57.658Z,0.44
2023-04-04T04:03:27.378Z,0.43
2023-04-04T04:05:55.375Z,0.31
2023-04-04T04:08:23.930Z,0.12
2023-04-04T04:10:52.093Z,-0.14
2023-04-04T04:13:18.862Z,-0.21
2023-04-04T04:15:45.718Z,0.03
2023-04-04T04:18:17.864Z,0.33
2023-04-04T04:20:44.784Z,0.18
2023-04-04T04:23:11.964Z,0.23
2023-04-04T04:25:38.792Z,0.12
2023-04-04T04:28:17.690Z,0.31
2023-04-04T04:30:44.748Z,0.18
2023-04-04T04:33:13.322Z,0.21
2023-04-04T04:35:52.557Z,0.00
2023-04-04T04:38:22.573Z,0.17
2023-04-04T04:40:50.146Z,0.19
2023-04-04T04:43:26.475Z,0.28
2023-04-04T04:45:53.324Z,0.48
2023-04-04T04:48:20.148Z,0.50
2023-04-04T04:50:52.068Z,0.28
2023-04-04T04:53:29.281Z,0.24
2023-04-04T04:55:56.169Z,0.35
2023-04-04T04:58:24.707Z,0.17
2023-04-04T05:00:56.930Z,0.33
2023-04-04T05:03:25.182Z,0.37
2023-04-04T05:05:52.295Z,0.31
2023-04-04T05:08:19.164Z,0.42
2023-04-04T05:10:58.138Z,0.76
2023-04-04T05:13:28.597Z,0.53
2023-04-04T05:15:55.777Z,0.48
2023-04-04T05:18:22.833Z,0.38
2023-04-04T05:20:54.506Z,0.43
2023-04-04T05:23:24.079Z,0.41
2023-04-04T05:25:53.421Z,0.39
2023-04-04T05:28:21.955Z,0.40
2023-04-04T05:30:50.295Z,0.36
2023-04-04T05:33:21.264Z,0.39
2023-04-04T05:36:00.144Z,0.16
2023-04-04T05:38:28.685Z,0.10
2023-04-04T05:40:55.521Z,0.06
2023-04-04T05:43:23.754Z,0.33
2023-04-04T05:46:10.823Z,0.39
2023-04-04T05:48:43.288Z,0.73
2023-04-04T05:51:11.891Z,0.92
2023-04-04T05:53:59.369Z,1.11
2023-04-04T05:56:32.101Z,1.39
2023-04-04T05:59:01.522Z,1.90
2023-04-04T06:01:32.680Z,2.31
2023-04-04T06:04:03.414Z,2.61
2023-04-04T06:06:31.166Z,2.74
2023-04-04T06:08:58.322Z,2.97
2023-04-04T06:11:26.697Z,3.25
2023-04-04T06:14:02.382Z,3.52
2023-04-04T06:16:30.380Z,3.58
2023-04-04T06:18:57.781Z,3.41
2023-04-04T06:21:25.234Z,3.49
2023-04-04T06:23:52.815Z,3.67
2023-04-04T06:26:20.852Z,3.59
2023-04-04T06:28:49.959Z,3.52
2023-04-04T06:31:21.769Z,3.41
2023-04-04T06:33:49.952Z,3.39
2023-04-04T06:36:18.741Z,3.52
2023-04-04T06:38:47.679Z,3.77
2023-04-04T06:41:19.135Z,3.83
2023-04-04T06:43:48.752Z,4.02
2023-04-04T06:46:16.244Z,4.12
2023-04-04T06:48:43.736Z,4.56
2023-04-04T06:51:11.482Z,4.70
2023-04-04T06:53:42.826Z,5.25
2023-04-04T06:56:10.219Z,5.48
2023-04-04T06:58:39.484Z,5.37
2023-04-04T07:01:07.718Z,5.34
2023-04-04T07:03:35.359Z,5.45
2023-04-04T07:06:05.636Z,5.77
2023-04-04T07:08:36.808Z,6.38
2023-04-04T07:11:05.448Z,6.82
2023-04-04T07:13:33.141Z,7.06
2023-04-04T07:16:00.509Z,6.77
2023-04-04T07:18:28.181Z,6.73
2023-04-04T07:20:55.045Z,6.66
2023-04-04T07:23:22.404Z,6.41
2023-04-04T07:25:49.620Z,6.27
2023-04-04T07:28:17.015Z,6.42
2023-04-04T07:30:44.375Z,6.64
2023-04-04T07:33:12.013Z,6.64
2023-04-04T07:35:39.543Z,6.52
2023-04-04T07:38:07.802Z,7.40
2023-04-04T07:40:35.098Z,7.88
2023-04-04T07:43:02.768Z,8.15
2023-04-04T07:45:30.012Z,8.30
2023-04-04T07:47:57.441Z,8.02
2023-04-04T07:50:24.907Z,8.05
2023-04-04T07:52:53.097Z,7.92
2023-04-04T07:55:20.596Z,8.15
2023-04-04T07:57:48.516Z,7.64
2023-04-04T08:00:17.795Z,7.66
2023-04-04T08:02:45.917Z,7.60
2023-04-04T08:05:13.386Z,7.33
2023-04-04T08:07:41.136Z,7.60
2023-04-04T08:10:09.103Z,7.93
2023-04-04T08:12:36.674Z,8.04
2023-04-04T08:15:04.480Z,7.90
2023-04-04T08:17:32.274Z,8.11
2023-04-04T08:20:00.190Z,8.37
2023-04-04T08:22:28.205Z,8.57
2023-04-04T08:24:56.116Z,9.22
2023-04-04T08:27:23.695Z,9.11
2023-04-04T08:29:50.937Z,9.25
2023-04-04T08:32:19.015Z,9.04
2023-04-04T08:34:46.677Z,8.76
2023-04-04T08:37:13.640Z,8.22
2023-04-04T08:39:40.328Z,8.77
2023-04-04T08:42:07.766Z,8.50
2023-04-04T08:44:35.670Z,8.81
2023-04-04T08:47:09.240Z,8.81
2023-04-04T08:49:39.018Z,9.25
2023-04-04T08:52:07.627Z,9.16
2023-04-04T08:54:35.776Z,8.92
2023-04-04T08:57:02.558Z,9.15
2023-04-04T08:59:29.504Z,9.57
2023-04-04T09:02:06.171Z,9.18
2023-04-04T09:04:33.595Z,9.29
2023-04-04T09:07:02.462Z,9.50
2023-04-04T09:09:32.625Z,9.51
2023-04-04T09:12:02.090Z,8.89
2023-04-04T09:14:30.629Z,9.31
2023-04-04T09:16:58.378Z,9.68
2023-04-04T09:19:26.608Z,10.16
2023-04-04T09:21:54.241Z,10.56
2023-04-04T09:24:21.864Z,10.67
2023-04-04T09:26:51.104Z,10.76
2023-04-04T09:29:20.677Z,11.29
2023-04-04T09:31:49.846Z,10.87
2023-04-04T09:34:19.520Z,10.86
2023-04-04T09:36:47.121Z,11.14
2023-04-04T09:39:17.550Z,10.52
2023-04-04T09:41:46.293Z,11.00
2023-04-04T09:44:14.300Z,11.36
2023-04-04T09:46:41.977Z,11.49
2023-04-04T09:49:19.820Z,11.71
2023-04-04T09:51:54.588Z,11.63
2023-04-04T09:54:29.655Z,11.48
2023-04-04T09:56:58.157Z,11.67
2023-04-04T09:59:25.540Z,12.32
2023-04-04T10:01:55.534Z,11.99
2023-04-04T10:04:27.335Z,12.41
2023-04-04T10:06:56.658Z,11.00
2023-04-04T10:09:24.445Z,11.85
2023-04-04T10:11:51.724Z,10.30
2023-04-04T10:14:19.345Z,10.62
2023-04-04T10:16:47.160Z,10.63
2023-04-04T10:19:18.009Z,11.41
2023-04-04T10:21:47.104Z,11.64
2023-04-04T10:24:14.604Z,12.00
2023-04-04T10:26:42.042Z,11.31
2023-04-04T10:29:09.468Z,12.14
2023-04-04T10:31:41.265Z,12.28
2023-04-04T10:34:18.383Z,10.44
2023-04-04T10:36:49.251Z,10.74
2023-04-04T10:39:25.718Z,10.24
2023-04-04T10:41:53.989Z,12.06
2023-04-04T10:44:27.479Z,12.50
2023-04-04T10:46:55.058Z,12.60
2023-04-04T10:49:23.007Z,12.67
2023-04-04T10:51:56.548Z,12.15
2023-04-04T10:54:26.944Z,12.43
2023-04-04T10:56:54.834Z,12.58
2023-04-04T10:59:22.807Z,11.99
2023-04-04T11:02:00.963Z,11.44
2023-04-04T11:04:32.298Z,10.98
2023-04-04T11:07:13.695Z,12.10
2023-04-04T11:09:48.005Z,13.03
2023-04-04T11:12:23.671Z,11.20
2023-04-04T11:15:04.453Z,10.67
2023-04-04T11:17:56.899Z,11.64
2023-04-04T11:20:25.800Z,12.35
2023-04-04T11:23:07.481Z,12.29
2023-04-04T11:25:36.659Z,13.35
2023-04-04T11:28:15.126Z,12.58
2023-04-04T11:30:50.534Z,13.68
2023-04-04T11:33:28.742Z,13.02
2023-04-04T11:36:00.270Z,13.61
2023-04-04T11:38:29.588Z,13.44
2023-04-04T11:40:58.163Z,13.45
2023-04-04T11:43:26.237Z,13.29
2023-04-04T11:45:53.391Z,14.01
2023-04-04T11:48:20.745Z,13.43
2023-04-04T11:50:50.382Z,12.04
2023-04-04T11:53:18.132Z,11.90
2023-04-04T11:55:50.524Z,12.39
2023-04-04T11:58:18.481Z,12.06
2023-04-04T12:00:47.224Z,12.96
2023-04-04T12:03:17.547Z,12.71
2023-04-04T12:05:46.075Z,12.82
2023-04-04T12:08:14.499Z,12.74
2023-04-04T12:10:42.068Z,12.95
2023-04-04T12:13:10.143Z,11.95
2023-04-04T12:15:38.254Z,11.96
2023-04-04T12:18:09.728Z,12.79
2023-04-04T12:20:41.781Z,11.64
2023-04-04T12:23:10.511Z,11.63
2023-04-04T12:25:40.679Z,12.98
2023-04-04T12:28:08.820Z,13.92
2023-04-04T12:30:36.644Z,14.07
2023-04-04T12:33:04.317Z,14.11
2023-04-04T12:35:32.240Z,14.35
2023-04-04T12:38:04.410Z,13.92
2023-04-04T12:40:39.402Z,13.63
2023-04-04T12:43:10.048Z,13.61
2023-04-04T12:45:41.672Z,13.63
2023-04-04T12:48:18.255Z,13.27
2023-04-04T12:50:54.542Z,14.21
2023-04-04T12:53:30.247Z,13.86
2023-04-04T12:56:03.234Z,12.47
2023-04-04T12:58:31.481Z,13.36
2023-04-04T13:01:00.390Z,13.63
2023-04-04T13:03:28.866Z,13.16
2023-04-04T13:05:56.341Z,13.35
2023-04-04T13:08:23.471Z,12.94
2023-04-04T13:11:03.964Z,14.50
2023-04-04T13:13:43.973Z,13.43
2023-04-04T13:16:29.097Z,13.83
2023-04-04T13:18:56.552Z,12.52
2023-04-04T13:21:23.623Z,11.63
2023-04-04T13:23:51.304Z,11.60
2023-04-04T13:26:18.631Z,11.21
2023-04-04T13:28:45.913Z,11.58
2023-04-04T13:31:13.857Z,12.86
2023-04-04T13:33:44.315Z,12.62
2023-04-04T13:36:14.337Z,13.20
2023-04-04T13:38:42.090Z,12.62
2023-04-04T13:41:09.714Z,12.08
2023-04-04T13:43:37.091Z,12.59
2023-04-04T13:46:04.469Z,11.77
2023-04-04T13:48:31.298Z,10.91
2023-04-04T13:50:58.750Z,10.63
2023-04-04T13:53:25.785Z,10.47
2023-04-04T13:58:23.377Z,10.87
2023-04-04T14:00:50.856Z,11.45
2023-04-04T14:03:18.037Z,11.85
2023-04-04T14:05:45.339Z,11.64
2023-04-04T14:08:13.012Z,10.53
2023-04-04T14:10:40.418Z,10.42
2023-04-04T14:13:08.083Z,10.28
2023-04-04T14:15:34.988Z,10.18
2023-04-04T14:18:02.331Z,10.15
2023-04-04T14:20:29.734Z,10.72
2023-04-04T14:22:57.110Z,10.92
2023-04-04T14:25:24.550Z,10.96
2023-04-04T14:27:51.803Z,10.70
2023-04-04T14:30:19.334Z,11.46
2023-04-04T14:32:46.546Z,10.89
2023-04-04T14:35:14.029Z,10.48
2023-04-04T14:37:41.542Z,10.78
2023-04-04T14:40:09.637Z,11.23
2023-04-04T14:42:37.084Z,11.03
2023-04-04T14:45:08.059Z,10.89
2023-04-04T14:47:36.001Z,10.97
2023-04-04T14:50:04.524Z,10.42
2023-04-04T14:52:32.347Z,10.41
2023-04-04T14:54:59.567Z,9.92
2023-04-04T14:57:28.745Z,9.91
2023-04-04T14:59:55.679Z,9.61
2023-04-04T15:02:22.607Z,9.42
2023-04-04T15:04:49.685Z,9.51
2023-04-04T15:07:16.590Z,9.44
2023-04-04T15:09:43.295Z,9.89
2023-04-04T15:12:10.672Z,9.76
2023-04-04T15:14:38.054Z,10.03
2023-04-04T15:17:05.448Z,9.83
2023-04-04T15:19:33.781Z,9.55
2023-04-04T15:22:01.132Z,9.50
2023-04-04T15:24:28.434Z,9.38
2023-04-04T15:26:57.759Z,9.60
2023-04-04T15:29:25.057Z,9.26
2023-04-04T15:31:52.885Z,9.24
2023-04-04T15:34:20.538Z,9.35
2023-04-04T15:36:48.180Z,9.25
2023-04-04T15:39:15.667Z,9.51
2023-04-04T15:41:43.080Z,9.17
2023-04-04T15:44:10.520Z,9.44
2023-04-04T15:46:37.586Z,9.28
2023-04-04T15:49:06.097Z,9.05
2023-04-04T15:51:33.827Z,9.19
2023-04-04T15:54:01.665Z,9.19
2023-04-04T15:56:28.653Z,9.30
2023-04-04T15:58:56.206Z,9.11
2023-04-04T16:01:23.804Z,9.09
2023-04-04T16:03:51.453Z,8.80
2023-04-04T16:06:18.425Z,8.90
2023-04-04T16:08:45.985Z,9.21
2023-04-04T16:11:13.162Z,9.08
2023-04-04T16:13:40.783Z,8.95
2023-04-04T16:16:07.563Z,8.95
2023-04-04T16:18:34.482Z,8.97
2023-04-04T16:21:03.282Z,8.92
2023-04-04T16:23:32.074Z,8.75
2023-04-04T16:25:58.956Z,8.68
2023-04-04T16:28:26.016Z,8.55
2023-04-04T16:30:52.967Z,8.57
2023-04-04T16:33:21.690Z,8.56
2023-04-04T16:35:48.504Z,8.56
2023-04-04T16:38:15.735Z,8.47
2023-04-04T16:40:44.053Z,8.56
2023-04-04T16:43:10.891Z,8.43
2023-04-04T16:45:38.164Z,8.57
2023-04-04T16:48:04.983Z,8.60
2023-04-04T16:50:32.178Z,8.54
2023-04-04T16:53:00.097Z,8.44
2023-04-04T16:55:27.967Z,8.39
2023-04-04T16:57:55.128Z,8.44
2023-04-04T17:00:23.594Z,8.38
2023-04-04T17:02:51.128Z,8.35
2023-04-04T17:05:18.733Z,8.39
2023-04-04T17:07:46.134Z,8.39
2023-04-04T17:10:13.965Z,8.50
2023-04-04T17:12:41.961Z,8.45
2023-04-04T17:15:09.221Z,8.34
2023-04-04T17:17:36.563Z,8.34
2023-04-04T17:20:05.486Z,8.31
2023-04-04T17:22:32.825Z,8.20
2023-04-04T17:24:59.939Z,8.10
2023-04-04T17:27:27.299Z,8.00
2023-04-04T17:29:54.586Z,7.95
2023-04-04T17:32:22.383Z,7.97
2023-04-04T17:34:49.156Z,7.89
2023-04-04T17:37:16.690Z,7.91
2023-04-04T17:39:45.419Z,7.82
2023-04-04T17:42:13.025Z,7.71
2023-04-04T17:44:40.354Z,7.62
2023-04-04T17:47:08.847Z,7.63
2023-04-04T17:49:37.493Z,7.58
2023-04-04T17:52:05.243Z,7.53
2023-04-04T17:54:33.394Z,7.41
2023-04-04T17:57:01.167Z,7.33
2023-04-04T17:59:28.456Z,7.33
2023-04-04T18:01:55.963Z,7.26
2023-04-04T18:04:25.522Z,7.22
2023-04-04T18:06:53.189Z,7.12
2023-04-04T18:09:21.267Z,7.05
2023-04-04T18:11:48.988Z,6.92
2023-04-04T18:14:16.345Z,6.76
2023-04-04T18:16:43.712Z,6.71
2023-04-04T18:19:11.222Z,6.76
2023-04-04T18:21:39.278Z,6.73
2023-04-04T18:24:12.001Z,6.70
2023-04-04T18:26:39.553Z,6.60
2023-04-04T18:29:07.120Z,6.55
2023-04-04T18:31:34.363Z,6.59
2023-04-04T18:34:01.819Z,6.47
2023-04-04T18:36:29.386Z,6.43
2023-04-04T18:38:57.086Z,6.43
2023-04-04T18:41:24.319Z,6.38
2023-04-04T18:43:51.967Z,6.33
2023-04-04T18:46:19.199Z,6.33
2023-04-04T18:48:46.878Z,6.20
2023-04-04T18:51:15.163Z,5.97
2023-04-04T18:53:42.372Z,5.87
2023-04-04T18:56:10.078Z,6.00
2023-04-04T18:58:37.510Z,5.98
2023-04-04T19:01:04.895Z,5.98
2023-04-04T19:03:39.247Z,6.00
2023-04-04T19:06:07.907Z,5.90
2023-04-04T19:08:40.466Z,6.01
2023-04-04T19:11:08.387Z,5.83
2023-04-04T19:13:36.252Z,5.92
2023-04-04T19:16:03.835Z,5.86
2023-04-04T19:18:31.740Z,5.77
2023-04-04T19:20:59.329Z,5.86
2023-04-04T19:23:27.917Z,5.82
2023-04-04T19:25:56.248Z,5.75
2023-04-04T19:28:23.746Z,5.65
2023-04-04T19:30:54.520Z,5.60
2023-04-04T19:33:24.202Z,5.50
2023-04-04T19:35:59.296Z,5.62
2023-04-04T19:38:28.794Z,5.57
2023-04-04T19:41:01.310Z,5.56
2023-04-04T19:43:30.409Z,5.51
2023-04-04T19:45:59.872Z,5.39
2023-04-04T19:48:37.318Z,5.48
2023-04-04T19:51:08.530Z,5.49
2023-04-04T19:53:36.699Z,5.49
2023-04-04T19:56:09.726Z,5.39
2023-04-04T19:58:37.994Z,5.38
2023-04-04T20:01:06.278Z,5.40
2023-04-04T20:03:37.053Z,5.27
2023-04-04T20:06:13.230Z,5.33
2023-04-04T20:08:46.910Z,5.28
2023-04-04T20:11:14.234Z,5.21
2023-04-04T20:13:41.873Z,5.01
2023-04-04T20:16:12.043Z,5.18
2023-04-04T20:18:40.310Z,5.02
2023-04-04T20:21:24.565Z,5.20
2023-04-04T20:23:54.141Z,5.18
2023-04-04T20:26:36.777Z,5.19
2023-04-04T20:29:09.729Z,5.09
2023-04-04T20:31:45.878Z,5.00
2023-04-04T20:34:42.460Z,4.87
2023-04-04T20:37:30.389Z,4.99
2023-04-04T20:39:59.078Z,4.91
2023-04-04T20:42:26.570Z,5.02
2023-04-04T20:45:01.116Z,4.96
2023-04-04T20:47:41.024Z,4.90
2023-04-04T20:50:17.869Z,4.69
2023-04-04T20:52:58.945Z,4.80
2023-04-04T20:55:31.285Z,4.89
2023-04-04T20:58:09.329Z,4.84
2023-04-04T21:00:42.098Z,4.93
2023-04-04T21:03:31.185Z,4.88
2023-04-04T21:06:09.935Z,4.82
2023-04-04T21:08:42.888Z,4.86
2023-04-04T21:11:10.801Z,4.86
2023-04-04T21:13:39.920Z,4.94
2023-04-04T21:16:14.675Z,4.86
2023-04-04T21:18:42.238Z,4.81
2023-04-04T21:21:19.308Z,4.78
2023-04-04T21:23:54.907Z,4.67
2023-04-04T21:26:32.928Z,4.75
2023-04-04T21:29:21.891Z,4.85
2023-04-04T21:31:51.236Z,4.86
2023-04-04T21:34:26.578Z,5.01
2023-04-04T21:36:56.512Z,5.06
2023-04-04T21:39:25.748Z,5.16
2023-04-04T21:42:06.854Z,5.18
2023-04-04T21:44:34.550Z,5.13
2023-04-04T21:47:01.967Z,5.11
2023-04-04T21:49:29.507Z,4.98
2023-04-04T21:52:01.062Z,4.98
2023-04-04T21:54:28.555Z,4.89
2023-04-04T21:56:55.960Z,4.88
2023-04-04T21:59:23.310Z,4.97
2023-04-04T22:01:52.926Z,4.92
2023-04-04T22:04:20.191Z,5.11
2023-04-04T22:06:47.394Z,5.04
2023-04-04T22:09:15.766Z,4.98
2023-04-04T22:11:44.717Z,5.12
2023-04-04T22:14:18.014Z,5.16
2023-04-04T22:16:46.102Z,5.19
2023-04-04T22:19:13.414Z,5.05
2023-04-04T22:21:48.516Z,5.09
2023-04-04T22:24:19.018Z,4.96
2023-04-04T22:26:46.576Z,4.91
2023-04-04T22:29:14.306Z,4.79
2023-04-04T22:31:41.752Z,4.82
2023-04-04T22:34:09.839Z,4.70
2023-04-04T22:36:39.077Z,4.56
2023-04-04T22:39:06.117Z,4.58
2023-04-04T22:41:33.344Z,4.70
2023-04-04T22:44:00.571Z,4.50
2023-04-04T22:46:29.696Z,4.42
2023-04-04T22:49:05.623Z,4.53
2023-04-04T22:51:45.696Z,4.38
2023-04-04T22:54:15.365Z,4.44
2023-04-04T22:56:42.588Z,4.30
2023-04-04T22:59:09.947Z,4.19
2023-04-04T23:01:37.205Z,4.06
2023-04-04T23:04:04.664Z,3.94
2023-04-04T23:06:31.993Z,4.14
2023-04-04T23:08:59.341Z,3.95
2023-04-04T23:11:27.530Z,3.97
2023-04-04T23:13:57.289Z,3.64
2023-04-04T23:16:26.723Z,3.88
2023-04-04T23:18:53.992Z,3.86
2023-04-04T23:21:22.400Z,3.70
2023-04-04T23:23:49.778Z,3.61
2023-04-04T23:26:17.224Z,3.57
2023-04-04T23:28:46.645Z,3.45
2023-04-04T23:31:15.117Z,3.35
2023-04-04T23:33:42.286Z,3.23
2023-04-04T23:36:10.084Z,3.32
2023-04-04T23:38:37.468Z,3.28
2023-04-04T23:41:04.870Z,3.19
2023-04-04T23:43:33.286Z,3.13
2023-04-04T23:46:00.787Z,3.23
2023-04-04T23:48:28.130Z,3.18
2023-04-04T23:50:56.936Z,3.24
2023-04-04T23:53:24.585Z,3.13
2023-04-04T23:55:52.182Z,3.17
2023-04-04T23:58:19.211Z,3.71
